ADDS TAF Board (Experimental) INFO Settings
IDs: Format: Expanded Condensed

KMSP - Minneapolis-St Paul, MN, US

Issued at 2342 UTC 25 Aug 2016
Updated at 0126 UTC 26 Aug 2016
Time0053Z 26/02Z 26/03Z 26/04Z 26/05Z 26/06Z 26/07Z 26/08Z 26/09Z 26/10Z 26/11Z 26/12Z 26/13Z 26/14Z
Type OBS PRVL PRVL PRVL PRVL PRVL PRVL PRVL PRVL PRVL PRVL PRVL PRVL PRVL
VIS 10 >6 >6 >6 >6 >6 >6 >6 >6 >6 >6 >6 >6 >6
CIG -- -- -- -- -- -- -- -- -- -- -- -- -- --
Cover SCT SCT SKC SKC SKC SKC SKC SKC SKC SKC SKC SKC SKC SKC
FltCat VFR VFR VFR VFR VFR VFR VFR VFR VFR VFR VFR VFR VFR VFR
WX -- -- -- -- -- -- -- -- -- -- -- -- -- --
WDir 280 300 290 290 290 290 290 290 290 290 290 290 290 290
WSpd 9 10 4 4 4 4 4 4 4 4 4 4 4 4
WGst -- -- -- -- -- -- -- -- -- -- -- -- -- --
R04/22
XWnd 7 10 4 4 4 4 4 4 4 4 4 4 4 4
HWnd -5 -3 -2 -2 -2 -2 -2 -2 -2 -2 -2 -2 -2 -2
R12/30
XWnd -3 -0 -1 -1 -1 -1 -1 -1 -1 -1 -1 -1 -1 -1
HWnd -8 -10 -4 -4 -4 -4 -4 -4 -4 -4 -4 -4 -4 -4
R17/35
XWnd -8 -8 -3 -3 -3 -3 -3 -3 -3 -3 -3 -3 -3 -3
HWnd -3 -6 -2 -2 -2 -2 -2 -2 -2 -2 -2 -2 -2 -2

Raw TAF
KMSP 252342Z 2600/2706 30010KT P6SM SCT035 SCT250
  FM260300 29004KT P6SM SKC
  FM261800 13006KT P6SM SCT250


Raw METAR
KMSP 260053Z 28009KT 10SM FEW045 SCT250 20/11 A3008 RMK AO2 SLP184 T02000106
KMSP 252353Z 31012KT 10SM SCT045 BKN250 21/12 A3007 RMK AO2 SLP182 T02060117 10233 20206 53004
KMSP 252253Z 31011KT 10SM BKN039 BKN250 22/12 A3007 RMK AO2 SLP180 T02170122

METAR Board
Radar Display
Forecast Discussion

TAF Board Legend

Potential Impact
Threat None Slight Moderate High
Visibility (sm) ≥5.1 5.1>X≥3 3>X≥1 <1
Ceiling (100 ft) ≥30.1 30.1>X≥10 10>X≥5 <5
Wind Speed (kt) <10 10≤X<20 20≤X<30 ≥30
Wind Gust (kt) <15 15≤X<25 25≤X<35 ≥35
Weather No Wx Reported VCTS,-TS,-FZRA,SN TS,FZRA +TS,+FZRA,+SN